createdAt,value
2018-01-25T00:02:04.552Z,64.60
2018-01-25T00:04:30.687Z,66.00
2018-01-25T00:06:56.855Z,66.70
2018-01-25T00:09:23.105Z,68.00
2018-01-25T00:11:49.275Z,68.20
2018-01-25T00:14:18.406Z,68.70
2018-01-25T00:16:44.608Z,68.70
2018-01-25T00:19:10.776Z,71.00
2018-01-25T00:21:36.912Z,71.30
2018-01-25T00:24:03.051Z,71.60
2018-01-25T00:26:29.202Z,73.00
2018-01-25T00:28:55.323Z,73.60
2018-01-25T00:31:21.520Z,73.90
2018-01-25T00:36:18.759Z,78.00
2018-01-25T00:38:44.910Z,80.40
2018-01-25T00:41:11.037Z,81.40
2018-01-25T00:43:37.208Z,82.80
2018-01-25T00:46:04.156Z,86.40
2018-01-25T00:48:30.303Z,86.40
2018-01-25T00:50:56.457Z,86.20
2018-01-25T00:53:25.887Z,87.50
2018-01-25T00:55:52.059Z,89.20
2018-01-25T00:58:18.250Z,90.20
2018-01-25T01:00:44.418Z,90.90
2018-01-25T01:03:10.596Z,90.90
2018-01-25T01:05:36.772Z,91.50
2018-01-25T01:08:03.014Z,91.90
2018-01-25T01:10:31.749Z,93.60
2018-01-25T01:12:58.604Z,94.10
2018-01-25T01:15:24.952Z,93.30
2018-01-25T01:17:51.253Z,95.00
2018-01-25T01:20:17.603Z,95.20
2018-01-25T01:22:44.099Z,95.70
2018-01-25T01:25:10.280Z,95.70
2018-01-25T01:27:36.631Z,95.80
2018-01-25T01:30:06.782Z,96.10
2018-01-25T01:32:32.953Z,96.30
2018-01-25T01:34:59.152Z,96.40
2018-01-25T01:37:25.307Z,96.80
2018-01-25T01:39:51.597Z,96.30
2018-01-25T01:42:18.010Z,96.30
2018-01-25T01:44:44.405Z,96.30
2018-01-25T01:47:15.956Z,96.60
2018-01-25T01:49:42.305Z,96.60
2018-01-25T01:52:08.512Z,96.60
2018-01-25T01:54:34.821Z,96.30
2018-01-25T01:57:01.207Z,96.50
2018-01-25T01:59:27.544Z,96.70
2018-01-25T02:01:53.736Z,96.60
2018-01-25T02:04:19.972Z,96.70
2018-01-25T02:06:47.998Z,96.70
2018-01-25T02:09:14.654Z,97.00
2018-01-25T02:11:41.090Z,96.50
2018-01-25T02:14:07.766Z,96.50
2018-01-25T02:16:34.111Z,96.80
2018-01-25T02:19:00.346Z,96.80
2018-01-25T02:21:26.566Z,96.60
2018-01-25T02:23:54.279Z,96.60
2018-01-25T02:26:20.694Z,96.70
2018-01-25T02:28:47.111Z,96.40
2018-01-25T02:31:13.527Z,96.70
2018-01-25T02:33:40.035Z,96.70
2018-01-25T02:36:06.443Z,96.40
2018-01-25T02:38:32.905Z,96.60
2018-01-25T02:41:01.158Z,96.90
2018-01-25T02:43:28.292Z,97.00
2018-01-25T02:45:54.840Z,97.00
2018-01-25T02:48:21.645Z,97.00
2018-01-25T02:50:48.185Z,96.80
2018-01-25T02:53:14.798Z,97.00
2018-01-25T02:55:41.295Z,97.40
2018-01-25T02:58:11.591Z,97.30
2018-01-25T03:00:38.174Z,97.10
2018-01-25T03:03:04.719Z,96.60
2018-01-25T03:05:30.991Z,96.90
2018-01-25T03:07:57.294Z,96.90
2018-01-25T03:10:23.795Z,97.10
2018-01-25T03:13:09.998Z,97.00
2018-01-25T03:15:37.318Z,97.00
2018-01-25T03:18:04.010Z,97.30
2018-01-25T03:23:10.520Z,97.30
2018-01-25T03:25:38.547Z,96.90
2018-01-25T03:28:06.037Z,96.90
2018-01-25T03:30:32.666Z,97.10
2018-01-25T03:33:03.079Z,97.10
2018-01-25T03:35:29.583Z,96.80
2018-01-25T03:37:55.849Z,96.60
2018-01-25T03:40:22.051Z,96.70
2018-01-25T03:42:48.650Z,96.80
2018-01-25T03:45:18.891Z,96.50
2018-01-25T03:47:50.759Z,96.50
2018-01-25T03:50:17.782Z,96.50
2018-01-25T03:52:44.110Z,96.50
2018-01-25T03:55:10.392Z,96.60
2018-01-25T03:57:36.930Z,96.30
2018-01-25T04:00:03.731Z,96.40
2018-01-25T04:02:30.090Z,96.20
2018-01-25T04:04:57.722Z,96.50
2018-01-25T04:07:23.919Z,96.30
2018-01-25T04:09:50.171Z,96.30
2018-01-25T04:12:16.504Z,96.40
2018-01-25T04:14:42.773Z,96.60
2018-01-25T04:17:09.003Z,96.50
2018-01-25T04:19:35.358Z,96.20
2018-01-25T04:22:01.622Z,96.40
2018-01-25T04:24:30.892Z,96.10
2018-01-25T04:26:57.670Z,96.50
2018-01-25T04:29:24.120Z,96.40
2018-01-25T04:31:50.244Z,96.50
2018-01-25T04:34:16.466Z,96.40
2018-01-25T04:36:42.725Z,96.30
2018-01-25T04:39:09.064Z,96.40
2018-01-25T04:41:38.692Z,96.50
2018-01-25T04:44:05.567Z,96.60
2018-01-25T04:49:44.155Z,96.70
2018-01-25T04:54:43.570Z,96.50
2018-01-25T04:57:10.227Z,96.50
2018-01-25T04:59:37.769Z,96.60
2018-01-25T05:02:04.991Z,96.40
2018-01-25T05:04:34.191Z,96.60
2018-01-25T05:07:05.874Z,96.40
2018-01-25T05:09:39.277Z,96.40
2018-01-25T05:12:05.955Z,96.60
2018-01-25T05:14:32.646Z,96.20
2018-01-25T05:17:03.187Z,96.20
2018-01-25T05:19:34.324Z,96.20
2018-01-25T05:22:02.034Z,96.50
2018-01-25T05:24:28.866Z,96.20
2018-01-25T05:26:55.409Z,96.30
2018-01-25T05:29:21.870Z,96.20
2018-01-25T05:31:50.216Z,96.20
2018-01-25T05:34:21.259Z,96.40
2018-01-25T05:36:48.428Z,96.40
2018-01-25T05:39:15.071Z,96.40
2018-01-25T05:41:42.709Z,96.20
2018-01-25T05:44:09.851Z,96.30
2018-01-25T05:46:36.539Z,96.30
2018-01-25T05:49:05.764Z,96.40
2018-01-25T05:51:32.642Z,96.30
2018-01-25T05:53:59.315Z,96.00
2018-01-25T05:56:26.633Z,96.00
2018-01-25T05:58:54.358Z,96.00
2018-01-25T06:01:21.764Z,96.20
2018-01-25T06:03:55.894Z,95.90
2018-01-25T06:06:22.735Z,95.90
2018-01-25T06:08:49.658Z,96.00
2018-01-25T06:11:16.916Z,96.10
2018-01-25T06:13:43.646Z,96.10
2018-01-25T06:16:10.528Z,95.80
2018-01-25T06:18:42.993Z,95.50
2018-01-25T06:21:09.432Z,96.00
2018-01-25T06:23:37.830Z,95.80
2018-01-25T06:26:05.790Z,95.80
2018-01-25T06:28:33.054Z,95.50
2018-01-25T06:33:51.370Z,95.60
2018-01-25T06:36:17.567Z,95.80
2018-01-25T06:38:43.708Z,95.80
2018-01-25T06:41:11.614Z,95.50
2018-01-25T06:43:38.522Z,95.60
2018-01-25T06:46:04.873Z,95.90
2018-01-25T06:48:31.223Z,95.90
2018-01-25T06:50:57.552Z,95.80
2018-01-25T06:53:24.043Z,95.70
2018-01-25T06:55:57.902Z,95.80
2018-01-25T06:58:24.470Z,95.70
2018-01-25T07:00:51.640Z,95.50
2018-01-25T07:03:18.055Z,95.50
2018-01-25T07:05:44.937Z,95.50
2018-01-25T07:08:11.739Z,95.30
2018-01-25T07:10:42.180Z,95.80
2018-01-25T07:13:10.060Z,95.50
2018-01-25T07:15:36.609Z,95.30
2018-01-25T07:18:03.648Z,95.50
2018-01-25T07:20:30.074Z,95.30
2018-01-25T07:22:56.312Z,95.70
2018-01-25T07:25:27.746Z,95.40
2018-01-25T07:27:54.698Z,95.40
2018-01-25T07:30:21.247Z,95.40
2018-01-25T07:32:47.649Z,95.20
2018-01-25T07:35:13.886Z,95.60
2018-01-25T07:37:40.057Z,95.70
2018-01-25T07:40:12.432Z,95.70
2018-01-25T07:42:39.051Z,95.70
2018-01-25T07:45:05.686Z,95.70
2018-01-25T07:47:32.770Z,96.00
2018-01-25T07:49:59.348Z,95.90
2018-01-25T07:52:25.736Z,95.90
2018-01-25T07:54:56.152Z,95.90
2018-01-25T07:57:33.796Z,95.90
2018-01-25T08:00:00.259Z,96.00
2018-01-25T08:02:40.082Z,96.00
2018-01-25T08:05:06.307Z,96.10
2018-01-25T08:07:32.707Z,96.00
2018-01-25T08:09:59.089Z,96.00
2018-01-25T08:12:26.647Z,96.10
2018-01-25T08:17:29.054Z,96.00
2018-01-25T08:19:56.024Z,95.90
2018-01-25T08:22:23.029Z,96.00
2018-01-25T08:24:50.252Z,95.90
2018-01-25T08:27:27.661Z,96.00
2018-01-25T08:29:54.505Z,96.00
2018-01-25T08:32:20.763Z,95.80
2018-01-25T08:34:47.811Z,95.70
2018-01-25T08:37:14.258Z,95.80
2018-01-25T08:39:40.456Z,96.00
2018-01-25T08:42:09.522Z,96.10
2018-01-25T08:44:36.156Z,95.80
2018-01-25T08:47:03.109Z,95.90
2018-01-25T08:49:29.542Z,95.90
2018-01-25T08:51:56.252Z,95.90
2018-01-25T08:54:38.993Z,95.90
2018-01-25T08:57:06.252Z,95.90
2018-01-25T08:59:36.982Z,96.10
2018-01-25T09:05:01.802Z,96.00
2018-01-25T09:13:08.644Z,95.90
2018-01-25T09:15:38.935Z,95.80
2018-01-25T09:21:09.015Z,95.90
2018-01-25T09:23:35.359Z,95.70
2018-01-25T09:26:01.877Z,95.70
2018-01-25T09:28:28.297Z,95.60
2018-01-25T09:33:59.639Z,95.60
2018-01-25T09:36:30.663Z,95.60
2018-01-25T09:38:59.191Z,95.60
2018-01-25T09:41:27.689Z,95.70
2018-01-25T09:43:56.952Z,95.70
2018-01-25T09:46:24.307Z,95.60
2018-01-25T09:48:56.775Z,95.70
2018-01-25T09:51:24.822Z,95.60
2018-01-25T09:53:52.508Z,95.60
2018-01-25T09:56:26.187Z,95.70
2018-01-25T09:58:58.077Z,95.60
2018-01-25T10:01:24.777Z,95.50
2018-01-25T10:03:53.660Z,95.70
2018-01-25T10:06:22.860Z,95.70
2018-01-25T10:08:50.271Z,95.60
2018-01-25T10:11:18.003Z,95.60
2018-01-25T10:13:48.491Z,95.60
2018-01-25T10:16:15.793Z,95.40
2018-01-25T10:18:42.212Z,95.10
2018-01-25T10:21:08.684Z,95.00
2018-01-25T10:23:36.345Z,95.50
2018-01-25T10:26:02.916Z,95.60
2018-01-25T10:28:33.146Z,95.60
2018-01-25T10:31:02.844Z,95.70
2018-01-25T10:33:30.566Z,95.40
2018-01-25T10:35:57.477Z,95.60
2018-01-25T10:38:24.506Z,95.60
2018-01-25T10:40:52.577Z,95.50
2018-01-25T10:45:50.399Z,95.40
2018-01-25T10:48:17.649Z,95.10
2018-01-25T10:50:43.887Z,94.90
2018-01-25T10:53:10.068Z,94.80
2018-01-25T10:55:36.530Z,94.70
2018-01-25T11:00:41.010Z,94.60
2018-01-25T11:03:07.973Z,94.80
2018-01-25T11:05:34.266Z,94.70
2018-01-25T11:08:11.522Z,94.50
2018-01-25T11:13:31.286Z,94.70
2018-01-25T11:19:09.352Z,94.40
2018-01-25T11:21:41.680Z,94.20
2018-01-25T11:24:30.769Z,94.20
2018-01-25T11:26:58.951Z,94.20
2018-01-25T11:29:25.634Z,94.30
2018-01-25T11:31:56.121Z,94.00
2018-01-25T11:34:22.820Z,94.10
2018-01-25T11:36:50.150Z,94.00
2018-01-25T11:39:16.897Z,93.90
2018-01-25T11:41:43.500Z,94.00
2018-01-25T11:44:10.072Z,94.10
2018-01-25T11:46:36.864Z,94.10
2018-01-25T11:49:11.016Z,94.20
2018-01-25T11:51:40.084Z,94.00
2018-01-25T11:54:06.866Z,94.10
2018-01-25T11:59:50.295Z,93.60
2018-01-25T12:02:17.028Z,93.60
2018-01-25T12:04:44.071Z,93.60
2018-01-25T12:07:10.470Z,93.70
2018-01-25T12:09:37.121Z,93.60
2018-01-25T12:12:10.520Z,93.50
2018-01-25T12:14:37.122Z,93.40
2018-01-25T12:17:03.889Z,93.30
2018-01-25T12:19:30.531Z,93.20
2018-01-25T12:21:57.072Z,93.30
2018-01-25T12:24:23.635Z,93.20
2018-01-25T12:26:56.523Z,93.10
2018-01-25T12:29:23.065Z,93.40
2018-01-25T12:31:50.253Z,92.90
2018-01-25T12:34:16.713Z,93.30
2018-01-25T12:36:43.137Z,93.30
2018-01-25T12:39:09.327Z,93.30
2018-01-25T12:41:37.798Z,83.60
2018-01-25T12:44:07.822Z,74.00
2018-01-25T12:46:34.411Z,74.80
2018-01-25T12:49:02.062Z,77.30
2018-01-25T12:51:28.672Z,74.90
2018-01-25T12:53:56.471Z,73.00
2018-01-25T12:56:23.711Z,73.10
2018-01-25T12:58:51.002Z,76.00
2018-01-25T13:01:22.245Z,76.90
2018-01-25T13:03:50.084Z,73.40
2018-01-25T13:06:18.343Z,75.10
2018-01-25T13:08:45.127Z,72.60
2018-01-25T13:11:11.613Z,73.30
2018-01-25T13:13:38.202Z,73.30
2018-01-25T13:16:07.575Z,68.10
2018-01-25T13:18:34.045Z,70.10
2018-01-25T13:21:00.908Z,71.00
2018-01-25T13:23:27.976Z,72.60
2018-01-25T13:25:55.508Z,71.20
2018-01-25T13:28:22.210Z,69.50
2018-01-25T13:33:49.459Z,68.80
2018-01-25T13:36:16.130Z,65.90
2018-01-25T13:38:43.187Z,66.90
2018-01-25T13:41:09.838Z,67.30
2018-01-25T13:43:37.392Z,67.30
2018-01-25T13:46:04.211Z,66.10
2018-01-25T13:48:31.214Z,64.80
2018-01-25T13:51:03.652Z,65.20
2018-01-25T13:53:30.267Z,63.70
2018-01-25T13:55:56.824Z,62.90
2018-01-25T13:58:23.257Z,63.70
2018-01-25T14:00:50.253Z,65.40
2018-01-25T14:03:21.795Z,67.30
2018-01-25T14:05:48.381Z,67.30
2018-01-25T14:08:14.978Z,65.40
2018-01-25T14:10:42.003Z,66.40
2018-01-25T14:13:09.411Z,66.00
2018-01-25T14:15:36.355Z,65.40
2018-01-25T14:18:07.011Z,65.50
2018-01-25T14:20:33.539Z,66.00
2018-01-25T14:23:00.193Z,65.50
2018-01-25T14:25:26.629Z,63.50
2018-01-25T14:27:53.926Z,64.30
2018-01-25T14:30:20.548Z,64.30
2018-01-25T14:32:51.714Z,63.50
2018-01-25T14:35:18.282Z,65.00
2018-01-25T14:37:44.771Z,66.10
2018-01-25T14:40:11.360Z,64.60
2018-01-25T14:42:37.908Z,63.90
2018-01-25T14:45:04.394Z,65.50
2018-01-25T14:47:30.928Z,65.50
2018-01-25T14:49:58.606Z,65.20
2018-01-25T14:52:25.162Z,65.40
2018-01-25T14:54:51.907Z,66.30
2018-01-25T14:57:18.590Z,63.40
2018-01-25T14:59:45.271Z,65.40
2018-01-25T15:02:11.792Z,64.80
2018-01-25T15:04:38.172Z,66.40
2018-01-25T15:07:06.539Z,66.40
2018-01-25T15:09:33.052Z,66.20
2018-01-25T15:11:59.754Z,66.60
2018-01-25T15:14:26.248Z,65.40
2018-01-25T15:16:52.712Z,66.30
2018-01-25T15:19:19.366Z,66.90
2018-01-25T15:21:45.827Z,68.00
2018-01-25T15:24:12.326Z,68.50
2018-01-25T15:26:45.458Z,68.70
2018-01-25T15:29:11.931Z,69.00
2018-01-25T15:31:38.499Z,70.80
2018-01-25T15:34:05.004Z,71.20
2018-01-25T15:36:31.523Z,71.80
2018-01-25T15:38:58.360Z,72.10
2018-01-25T15:41:29.588Z,72.00
2018-01-25T15:43:56.060Z,75.90
2018-01-25T15:46:22.600Z,75.10
2018-01-25T15:48:49.073Z,74.10
2018-01-25T15:51:15.450Z,72.10
2018-01-25T15:53:41.918Z,72.40
2018-01-25T15:56:08.599Z,73.30
2018-01-25T15:58:35.164Z,73.30
2018-01-25T16:01:01.543Z,73.20
2018-01-25T16:03:27.980Z,73.70
2018-01-25T16:05:54.921Z,75.50
2018-01-25T16:08:21.367Z,76.40
2018-01-25T16:10:47.755Z,76.70
2018-01-25T16:13:14.916Z,75.60
2018-01-25T16:15:41.514Z,74.80
2018-01-25T16:18:08.035Z,73.80
2018-01-25T16:20:34.423Z,74.20
2018-01-25T16:23:00.915Z,76.10
2018-01-25T16:25:29.727Z,73.10
2018-01-25T16:28:03.002Z,75.00
2018-01-25T16:30:29.488Z,74.40
2018-01-25T16:32:56.658Z,74.10
2018-01-25T16:35:25.079Z,73.50
2018-01-25T16:38:11.212Z,75.40
2018-01-25T16:40:40.757Z,75.30
2018-01-25T16:43:07.094Z,72.30
2018-01-25T16:45:33.861Z,75.10
2018-01-25T16:48:01.154Z,71.90
2018-01-25T16:50:30.872Z,74.80
2018-01-25T16:55:54.744Z,75.90
2018-01-25T17:01:14.679Z,74.70
2018-01-25T17:03:41.526Z,73.30
2018-01-25T17:06:07.996Z,73.20
2018-01-25T17:08:34.496Z,74.70
2018-01-25T17:11:01.130Z,74.50
2018-01-25T17:13:30.452Z,75.60
2018-01-25T17:15:56.828Z,77.20
2018-01-25T17:18:23.471Z,74.60
2018-01-25T17:20:50.011Z,73.90
2018-01-25T17:23:16.580Z,73.10
2018-01-25T17:25:42.956Z,73.00
2018-01-25T17:28:09.347Z,72.30
2018-01-25T17:30:37.376Z,72.70
2018-01-25T17:36:12.900Z,74.10
2018-01-25T17:38:46.374Z,77.90
2018-01-25T17:41:15.813Z,76.90
2018-01-25T17:43:44.087Z,77.90
2018-01-25T17:46:13.642Z,78.20
2018-01-25T17:48:40.095Z,79.30
2018-01-25T17:51:06.510Z,81.00
2018-01-25T17:53:39.703Z,79.60
2018-01-25T17:56:11.587Z,80.00
2018-01-25T18:01:47.983Z,83.70
2018-01-25T18:04:15.351Z,84.70
2018-01-25T18:06:49.135Z,87.70
2018-01-25T18:09:15.969Z,87.50
2018-01-25T18:11:44.175Z,87.00
2018-01-25T18:14:10.365Z,88.30
2018-01-25T18:16:42.991Z,89.50
2018-01-25T18:19:13.010Z,90.30
2018-01-25T18:21:40.518Z,90.60
2018-01-25T18:24:08.698Z,90.20
2018-01-25T18:26:36.684Z,90.60
2018-01-25T18:29:03.146Z,90.70
2018-01-25T18:31:29.713Z,90.50
2018-01-25T18:33:56.352Z,90.70
2018-01-25T18:36:23.939Z,90.30
2018-01-25T18:47:55.192Z,93.50
2018-01-25T18:53:19.285Z,92.80
2018-01-25T18:55:47.804Z,93.40
2018-01-25T19:01:24.968Z,93.80
2018-01-25T19:07:20.968Z,92.80
2018-01-25T19:40:19.606Z,93.20
2018-01-25T19:42:51.198Z,94.20
2018-01-25T19:51:46.811Z,94.20
2018-01-25T19:54:45.726Z,93.50
2018-01-25T19:57:20.808Z,94.20
2018-01-25T19:59:52.739Z,94.40
2018-01-25T20:02:21.931Z,94.00
2018-01-25T20:04:54.090Z,93.40
2018-01-25T20:13:47.143Z,94.80
2018-01-25T20:25:26.338Z,94.90
2018-01-25T20:27:52.766Z,95.10
2018-01-25T20:36:35.933Z,95.90
2018-01-25T20:39:13.474Z,95.80
2018-01-25T20:47:50.275Z,96.10
2018-01-25T20:50:16.856Z,96.30
2018-01-25T20:52:45.245Z,96.10
2018-01-25T20:55:13.035Z,96.00
2018-01-25T20:57:46.096Z,96.20
2018-01-25T21:03:23.501Z,96.10
2018-01-25T21:08:52.109Z,96.20
2018-01-25T21:11:18.925Z,96.30
2018-01-25T21:13:48.116Z,96.00
2018-01-25T21:28:47.226Z,96.20
2018-01-25T21:31:35.838Z,96.00
2018-01-25T21:34:12.605Z,96.30
2018-01-25T21:36:45.098Z,96.10
2018-01-25T21:39:11.636Z,96.40
2018-01-25T21:41:41.276Z,96.70
2018-01-25T21:44:08.914Z,96.70
2018-01-25T21:46:37.656Z,96.60
2018-01-25T21:49:10.472Z,96.60
2018-01-25T21:54:50.642Z,96.00
2018-01-25T21:57:19.674Z,95.90
2018-01-25T21:59:48.993Z,95.70
2018-01-25T22:02:20.862Z,95.90
2018-01-25T22:04:47.415Z,96.20
2018-01-25T22:07:16.057Z,96.40
2018-01-25T22:09:43.425Z,96.50
2018-01-25T22:18:01.347Z,96.70
2018-01-25T22:20:27.859Z,96.50
2018-01-25T22:22:54.317Z,96.60
2018-01-25T22:25:20.630Z,96.90
2018-01-25T22:27:52.953Z,96.90
2018-01-25T22:45:52.963Z,96.00
2018-01-25T22:48:20.444Z,95.80
2018-01-25T22:50:56.275Z,96.30
2018-01-25T23:00:50.468Z,96.10
2018-01-25T23:03:17.126Z,96.10
2018-01-25T23:05:43.778Z,96.30
2018-01-25T23:14:33.700Z,95.80
2018-01-25T23:29:18.963Z,96.40
2018-01-25T23:37:39.859Z,96.30
2018-01-25T23:40:08.480Z,96.10
2018-01-25T23:42:35.908Z,96.10
2018-01-25T23:45:07.456Z,96.10
2018-01-25T23:52:06.696Z,95.90
2018-01-25T23:54:33.904Z,96.00
2018-01-25T23:57:07.852Z,95.90
2018-01-25T23:59:37.339Z,96.10
